sensor_id;sensor_type;location;lat;lon;timestamp;P1;durP1;ratioP1;P2;durP2;ratioP2
23252;SDS011;11795;47.054;15.408;2024-01-16T00:00:08;8.3;;;5.7;;
23252;SDS011;11795;47.054;15.408;2024-01-16T00:02:08;8.3;;;5.7;;
23252;SDS011;11795;47.054;15.408;2024-01-16T00:04:08;7.3;;;5.0;;
23252;SDS011;11795;47.054;15.408;2024-01-16T00:06:10;7.3;;;5.0;;
23252;SDS011;11795;47.054;15.408;2024-01-16T00:08:08;7.3;;;5.0;;
23252;SDS011;11795;47.054;15.408;2024-01-16T00:10:08;5.7;;;3.8;;
23252;SDS011;11795;47.054;15.408;2024-01-16T00:12:08;5.7;;;3.8;;
23252;SDS011;11795;47.054;15.408;2024-01-16T00:14:08;5.1;;;3.3;;
23252;SDS011;11795;47.054;15.408;2024-01-16T00:16:08;5.1;;;3.3;;
23252;SDS011;11795;47.054;15.408;2024-01-16T00:18:08;5.1;;;3.3;;
23252;SDS011;11795;47.054;15.408;2024-01-16T00:20:09;4.8;;;3.0;;
23252;SDS011;11795;47.054;15.408;2024-01-16T00:22:09;4.8;;;3.0;;
23252;SDS011;11795;47.054;15.408;2024-01-16T00:24:08;4.2;;;2.6;;
23252;SDS011;11795;47.054;15.408;2024-01-16T00:26:08;4.2;;;2.6;;
23252;SDS011;11795;47.054;15.408;2024-01-16T00:28:08;4.2;;;2.6;;
23252;SDS011;11795;47.054;15.408;2024-01-16T00:30:08;1.5;;;1.0;;
23252;SDS011;11795;47.054;15.408;2024-01-16T00:32:08;1.5;;;1.0;;
23252;SDS011;11795;47.054;15.408;2024-01-16T00:34:08;1.9;;;1.3;;
23252;SDS011;11795;47.054;15.408;2024-01-16T00:36:08;1.9;;;1.3;;
23252;SDS011;11795;47.054;15.408;2024-01-16T00:38:08;1.9;;;1.3;;
23252;SDS011;11795;47.054;15.408;2024-01-16T00:40:08;12.1;;;7.9;;
23252;SDS011;11795;47.054;15.408;2024-01-16T00:42:08;12.1;;;7.9;;
23252;SDS011;11795;47.054;15.408;2024-01-16T00:44:08;13.7;;;10.5;;
23252;SDS011;11795;47.054;15.408;2024-01-16T00:46:08;13.7;;;10.5;;
23252;SDS011;11795;47.054;15.408;2024-01-16T00:48:10;13.7;;;10.5;;
23252;SDS011;11795;47.054;15.408;2024-01-16T00:50:09;14.1;;;9.9;;
23252;SDS011;11795;47.054;15.408;2024-01-16T00:52:08;14.1;;;9.9;;
23252;SDS011;11795;47.054;15.408;2024-01-16T00:54:10;13.1;;;9.9;;
23252;SDS011;11795;47.054;15.408;2024-01-16T00:56:08;13.1;;;9.9;;
23252;SDS011;11795;47.054;15.408;2024-01-16T00:58:08;13.1;;;9.9;;
23252;SDS011;11795;47.054;15.408;2024-01-16T01:00:08;15.2;;;10.4;;
23252;SDS011;11795;47.054;15.408;2024-01-16T01:02:08;15.2;;;10.4;;
23252;SDS011;11795;47.054;15.408;2024-01-16T01:04:08;14.0;;;10.0;;
23252;SDS011;11795;47.054;15.408;2024-01-16T01:06:08;14.0;;;10.0;;
23252;SDS011;11795;47.054;15.408;2024-01-16T01:08:08;14.0;;;10.0;;
23252;SDS011;11795;47.054;15.408;2024-01-16T01:10:09;15.5;;;10.5;;
23252;SDS011;11795;47.054;15.408;2024-01-16T01:12:08;15.5;;;10.5;;
23252;SDS011;11795;47.054;15.408;2024-01-16T01:14:08;14.4;;;10.6;;
23252;SDS011;11795;47.054;15.408;2024-01-16T01:16:08;14.4;;;10.6;;
23252;SDS011;11795;47.054;15.408;2024-01-16T01:18:08;14.4;;;10.6;;
23252;SDS011;11795;47.054;15.408;2024-01-16T01:20:08;14.6;;;10.2;;
23252;SDS011;11795;47.054;15.408;2024-01-16T01:22:08;14.6;;;10.2;;
23252;SDS011;11795;47.054;15.408;2024-01-16T01:24:08;15.3;;;10.2;;
23252;SDS011;11795;47.054;15.408;2024-01-16T01:26:08;15.3;;;10.2;;
23252;SDS011;11795;47.054;15.408;2024-01-16T01:28:08;15.3;;;10.2;;
23252;SDS011;11795;47.054;15.408;2024-01-16T01:30:08;15.3;;;10.1;;
23252;SDS011;11795;47.054;15.408;2024-01-16T01:32:08;15.3;;;10.1;;
23252;SDS011;11795;47.054;15.408;2024-01-16T01:34:08;14.5;;;9.1;;
23252;SDS011;11795;47.054;15.408;2024-01-16T01:36:08;14.5;;;9.1;;
23252;SDS011;11795;47.054;15.408;2024-01-16T01:38:08;14.5;;;9.1;;
23252;SDS011;11795;47.054;15.408;2024-01-16T01:40:08;20.3;;;13.5;;
23252;SDS011;11795;47.054;15.408;2024-01-16T01:42:08;20.3;;;13.5;;
23252;SDS011;11795;47.054;15.408;2024-01-16T01:44:08;14.7;;;9.4;;
23252;SDS011;11795;47.054;15.408;2024-01-16T01:46:09;14.7;;;9.4;;
23252;SDS011;11795;47.054;15.408;2024-01-16T01:48:11;14.7;;;9.4;;
23252;SDS011;11795;47.054;15.408;2024-01-16T01:50:09;12.1;;;8.5;;
23252;SDS011;11795;47.054;15.408;2024-01-16T01:52:08;12.1;;;8.5;;
23252;SDS011;11795;47.054;15.408;2024-01-16T01:54:08;11.8;;;8.8;;
23252;SDS011;11795;47.054;15.408;2024-01-16T01:56:10;11.8;;;8.8;;
23252;SDS011;11795;47.054;15.408;2024-01-16T01:58:09;11.8;;;8.8;;
23252;SDS011;11795;47.054;15.408;2024-01-16T02:00:09;12.8;;;8.4;;
23252;SDS011;11795;47.054;15.408;2024-01-16T02:02:08;12.8;;;8.4;;
23252;SDS011;11795;47.054;15.408;2024-01-16T02:04:08;13.3;;;9.0;;
23252;SDS011;11795;47.054;15.408;2024-01-16T02:06:08;13.3;;;9.0;;
23252;SDS011;11795;47.054;15.408;2024-01-16T02:08:08;13.3;;;9.0;;
23252;SDS011;11795;47.054;15.408;2024-01-16T02:10:09;11.8;;;8.4;;
23252;SDS011;11795;47.054;15.408;2024-01-16T02:12:08;11.8;;;8.4;;
23252;SDS011;11795;47.054;15.408;2024-01-16T02:14:08;12.0;;;7.7;;
23252;SDS011;11795;47.054;15.408;2024-01-16T02:18:08;12.0;;;7.7;;
23252;SDS011;11795;47.054;15.408;2024-01-16T02:20:08;11.1;;;7.6;;
23252;SDS011;11795;47.054;15.408;2024-01-16T02:22:09;11.1;;;7.6;;
23252;SDS011;11795;47.054;15.408;2024-01-16T02:24:09;10.9;;;7.8;;
23252;SDS011;11795;47.054;15.408;2024-01-16T02:26:08;10.9;;;7.8;;
23252;SDS011;11795;47.054;15.408;2024-01-16T02:28:08;10.9;;;7.8;;
23252;SDS011;11795;47.054;15.408;2024-01-16T02:30:08;13.9;;;8.7;;
23252;SDS011;11795;47.054;15.408;2024-01-16T02:32:09;13.9;;;8.7;;
23252;SDS011;11795;47.054;15.408;2024-01-16T02:34:08;10.6;;;7.6;;
23252;SDS011;11795;47.054;15.408;2024-01-16T02:36:08;10.6;;;7.6;;
23252;SDS011;11795;47.054;15.408;2024-01-16T02:38:08;10.6;;;7.6;;
23252;SDS011;11795;47.054;15.408;2024-01-16T02:40:10;11.8;;;7.4;;
23252;SDS011;11795;47.054;15.408;2024-01-16T02:42:08;11.8;;;7.4;;
23252;SDS011;11795;47.054;15.408;2024-01-16T02:44:08;10.1;;;6.8;;
23252;SDS011;11795;47.054;15.408;2024-01-16T02:46:08;10.1;;;6.8;;
23252;SDS011;11795;47.054;15.408;2024-01-16T02:48:08;10.1;;;6.8;;
23252;SDS011;11795;47.054;15.408;2024-01-16T02:50:09;9.0;;;6.6;;
23252;SDS011;11795;47.054;15.408;2024-01-16T02:52:08;9.0;;;6.6;;
23252;SDS011;11795;47.054;15.408;2024-01-16T02:54:08;7.9;;;5.1;;
23252;SDS011;11795;47.054;15.408;2024-01-16T02:56:08;7.9;;;5.1;;
23252;SDS011;11795;47.054;15.408;2024-01-16T02:58:08;7.9;;;5.1;;
23252;SDS011;11795;47.054;15.408;2024-01-16T03:00:08;7.5;;;4.8;;
23252;SDS011;11795;47.054;15.408;2024-01-16T03:02:08;7.5;;;4.8;;
23252;SDS011;11795;47.054;15.408;2024-01-16T03:04:09;6.4;;;4.6;;
23252;SDS011;11795;47.054;15.408;2024-01-16T03:06:08;6.4;;;4.6;;
23252;SDS011;11795;47.054;15.408;2024-01-16T03:08:08;6.4;;;4.6;;
23252;SDS011;11795;47.054;15.408;2024-01-16T03:10:08;6.3;;;4.4;;
23252;SDS011;11795;47.054;15.408;2024-01-16T03:12:08;6.3;;;4.4;;
23252;SDS011;11795;47.054;15.408;2024-01-16T03:14:08;6.7;;;4.2;;
23252;SDS011;11795;47.054;15.408;2024-01-16T03:16:08;6.7;;;4.2;;
23252;SDS011;11795;47.054;15.408;2024-01-16T03:18:08;6.7;;;4.2;;
23252;SDS011;11795;47.054;15.408;2024-01-16T03:20:08;5.7;;;3.9;;
23252;SDS011;11795;47.054;15.408;2024-01-16T03:22:08;5.7;;;3.9;;
23252;SDS011;11795;47.054;15.408;2024-01-16T03:24:08;4.9;;;3.8;;
23252;SDS011;11795;47.054;15.408;2024-01-16T03:26:11;4.9;;;3.8;;
23252;SDS011;11795;47.054;15.408;2024-01-16T03:28:08;4.9;;;3.8;;
23252;SDS011;11795;47.054;15.408;2024-01-16T03:30:08;3.9;;;3.2;;
23252;SDS011;11795;47.054;15.408;2024-01-16T03:32:08;3.9;;;3.2;;
23252;SDS011;11795;47.054;15.408;2024-01-16T03:34:09;4.8;;;3.5;;
23252;SDS011;11795;47.054;15.408;2024-01-16T03:36:08;4.8;;;3.5;;
23252;SDS011;11795;47.054;15.408;2024-01-16T03:38:08;4.8;;;3.5;;
23252;SDS011;11795;47.054;15.408;2024-01-16T03:42:08;3.2;;;2.4;;
23252;SDS011;11795;47.054;15.408;2024-01-16T03:44:08;3.6;;;2.7;;
23252;SDS011;11795;47.054;15.408;2024-01-16T03:46:10;3.6;;;2.7;;
23252;SDS011;11795;47.054;15.408;2024-01-16T03:48:08;3.6;;;2.7;;
23252;SDS011;11795;47.054;15.408;2024-01-16T03:50:08;4.5;;;2.8;;
23252;SDS011;11795;47.054;15.408;2024-01-16T03:52:08;4.5;;;2.8;;
23252;SDS011;11795;47.054;15.408;2024-01-16T03:54:08;4.3;;;2.8;;
23252;SDS011;11795;47.054;15.408;2024-01-16T03:56:08;4.3;;;2.8;;
23252;SDS011;11795;47.054;15.408;2024-01-16T03:58:08;4.3;;;2.8;;
23252;SDS011;11795;47.054;15.408;2024-01-16T04:00:11;3.6;;;2.7;;
23252;SDS011;11795;47.054;15.408;2024-01-16T04:02:08;3.6;;;2.7;;
23252;SDS011;11795;47.054;15.408;2024-01-16T04:04:10;4.7;;;3.0;;
23252;SDS011;11795;47.054;15.408;2024-01-16T04:08:08;4.7;;;3.0;;
23252;SDS011;11795;47.054;15.408;2024-01-16T04:10:09;4.5;;;2.6;;
23252;SDS011;11795;47.054;15.408;2024-01-16T04:12:08;4.5;;;2.6;;
23252;SDS011;11795;47.054;15.408;2024-01-16T04:14:08;4.2;;;2.8;;
23252;SDS011;11795;47.054;15.408;2024-01-16T04:16:08;4.2;;;2.8;;
23252;SDS011;11795;47.054;15.408;2024-01-16T04:18:08;4.2;;;2.8;;
23252;SDS011;11795;47.054;15.408;2024-01-16T04:20:11;5.3;;;2.8;;
23252;SDS011;11795;47.054;15.408;2024-01-16T04:22:09;5.3;;;2.8;;
23252;SDS011;11795;47.054;15.408;2024-01-16T04:24:08;3.9;;;2.9;;
23252;SDS011;11795;47.054;15.408;2024-01-16T04:26:08;3.9;;;2.9;;
23252;SDS011;11795;47.054;15.408;2024-01-16T04:28:08;3.9;;;2.9;;
23252;SDS011;11795;47.054;15.408;2024-01-16T04:30:08;3.9;;;2.7;;
23252;SDS011;11795;47.054;15.408;2024-01-16T04:32:08;3.9;;;2.7;;
23252;SDS011;11795;47.054;15.408;2024-01-16T04:34:08;4.0;;;3.0;;
23252;SDS011;11795;47.054;15.408;2024-01-16T04:36:09;4.0;;;3.0;;
23252;SDS011;11795;47.054;15.408;2024-01-16T04:38:08;4.0;;;3.0;;
23252;SDS011;11795;47.054;15.408;2024-01-16T04:40:09;10.9;;;5.5;;
23252;SDS011;11795;47.054;15.408;2024-01-16T04:42:08;10.9;;;5.5;;
23252;SDS011;11795;47.054;15.408;2024-01-16T04:44:08;9.6;;;5.0;;
23252;SDS011;11795;47.054;15.408;2024-01-16T04:46:08;9.6;;;5.0;;
23252;SDS011;11795;47.054;15.408;2024-01-16T04:48:08;9.6;;;5.0;;
23252;SDS011;11795;47.054;15.408;2024-01-16T04:50:08;5.6;;;3.5;;
23252;SDS011;11795;47.054;15.408;2024-01-16T04:52:08;5.6;;;3.5;;
23252;SDS011;11795;47.054;15.408;2024-01-16T04:54:08;4.4;;;3.1;;
23252;SDS011;11795;47.054;15.408;2024-01-16T04:56:08;4.4;;;3.1;;
23252;SDS011;11795;47.054;15.408;2024-01-16T04:58:09;4.4;;;3.1;;
23252;SDS011;11795;47.054;15.408;2024-01-16T05:00:11;4.2;;;2.6;;
23252;SDS011;11795;47.054;15.408;2024-01-16T05:02:08;4.2;;;2.6;;
23252;SDS011;11795;47.054;15.408;2024-01-16T05:04:08;5.2;;;2.9;;
23252;SDS011;11795;47.054;15.408;2024-01-16T05:06:12;5.2;;;2.9;;
23252;SDS011;11795;47.054;15.408;2024-01-16T05:08:08;5.2;;;2.9;;
23252;SDS011;11795;47.054;15.408;2024-01-16T05:10:09;8.9;;;5.4;;
23252;SDS011;11795;47.054;15.408;2024-01-16T05:12:08;8.9;;;5.4;;
23252;SDS011;11795;47.054;15.408;2024-01-16T05:14:08;5.6;;;2.9;;
23252;SDS011;11795;47.054;15.408;2024-01-16T05:16:08;5.6;;;2.9;;
23252;SDS011;11795;47.054;15.408;2024-01-16T05:18:08;5.6;;;2.9;;
23252;SDS011;11795;47.054;15.408;2024-01-16T05:20:08;5.2;;;2.5;;
23252;SDS011;11795;47.054;15.408;2024-01-16T05:22:09;5.2;;;2.5;;
23252;SDS011;11795;47.054;15.408;2024-01-16T05:24:08;2.6;;;1.6;;
23252;SDS011;11795;47.054;15.408;2024-01-16T05:26:08;2.6;;;1.6;;
23252;SDS011;11795;47.054;15.408;2024-01-16T05:28:17;2.6;;;1.6;;
23252;SDS011;11795;47.054;15.408;2024-01-16T05:30:08;4.8;;;3.5;;
23252;SDS011;11795;47.054;15.408;2024-01-16T05:32:08;4.8;;;3.5;;
23252;SDS011;11795;47.054;15.408;2024-01-16T05:34:08;7.7;;;4.6;;
23252;SDS011;11795;47.054;15.408;2024-01-16T05:36:08;7.7;;;4.6;;
23252;SDS011;11795;47.054;15.408;2024-01-16T05:38:08;7.7;;;4.6;;
23252;SDS011;11795;47.054;15.408;2024-01-16T05:40:08;5.7;;;4.3;;
23252;SDS011;11795;47.054;15.408;2024-01-16T05:42:08;5.7;;;4.3;;
23252;SDS011;11795;47.054;15.408;2024-01-16T05:44:08;5.8;;;3.8;;
23252;SDS011;11795;47.054;15.408;2024-01-16T05:46:08;5.8;;;3.8;;
23252;SDS011;11795;47.054;15.408;2024-01-16T05:48:10;5.8;;;3.8;;
23252;SDS011;11795;47.054;15.408;2024-01-16T05:50:08;8.2;;;4.1;;
23252;SDS011;11795;47.054;15.408;2024-01-16T05:52:08;8.2;;;4.1;;
23252;SDS011;11795;47.054;15.408;2024-01-16T05:54:08;5.1;;;3.8;;
23252;SDS011;11795;47.054;15.408;2024-01-16T05:56:08;5.1;;;3.8;;
23252;SDS011;11795;47.054;15.408;2024-01-16T05:58:08;5.1;;;3.8;;
23252;SDS011;11795;47.054;15.408;2024-01-16T06:00:10;6.1;;;4.1;;
23252;SDS011;11795;47.054;15.408;2024-01-16T06:02:08;6.1;;;4.1;;
23252;SDS011;11795;47.054;15.408;2024-01-16T06:04:08;6.9;;;4.0;;
23252;SDS011;11795;47.054;15.408;2024-01-16T06:06:09;6.9;;;4.0;;
23252;SDS011;11795;47.054;15.408;2024-01-16T06:08:08;6.9;;;4.0;;
23252;SDS011;11795;47.054;15.408;2024-01-16T06:10:11;6.3;;;3.7;;
23252;SDS011;11795;47.054;15.408;2024-01-16T06:12:08;6.3;;;3.7;;
23252;SDS011;11795;47.054;15.408;2024-01-16T06:14:08;7.3;;;4.5;;
23252;SDS011;11795;47.054;15.408;2024-01-16T06:16:08;7.3;;;4.5;;
23252;SDS011;11795;47.054;15.408;2024-01-16T06:18:08;7.3;;;4.5;;
23252;SDS011;11795;47.054;15.408;2024-01-16T06:20:09;7.3;;;4.1;;
23252;SDS011;11795;47.054;15.408;2024-01-16T06:22:08;7.3;;;4.1;;
23252;SDS011;11795;47.054;15.408;2024-01-16T06:24:08;7.3;;;3.6;;
23252;SDS011;11795;47.054;15.408;2024-01-16T06:26:08;7.3;;;3.6;;
23252;SDS011;11795;47.054;15.408;2024-01-16T06:28:09;7.3;;;3.6;;
23252;SDS011;11795;47.054;15.408;2024-01-16T06:30:08;6.2;;;3.5;;
23252;SDS011;11795;47.054;15.408;2024-01-16T06:32:08;6.2;;;3.5;;
23252;SDS011;11795;47.054;15.408;2024-01-16T06:34:08;7.1;;;4.0;;
23252;SDS011;11795;47.054;15.408;2024-01-16T06:36:08;7.1;;;4.0;;
23252;SDS011;11795;47.054;15.408;2024-01-16T06:38:08;7.1;;;4.0;;
23252;SDS011;11795;47.054;15.408;2024-01-16T06:40:08;5.4;;;3.9;;
23252;SDS011;11795;47.054;15.408;2024-01-16T06:42:08;5.4;;;3.9;;
23252;SDS011;11795;47.054;15.408;2024-01-16T06:44:08;6.0;;;4.2;;
23252;SDS011;11795;47.054;15.408;2024-01-16T06:46:09;6.0;;;4.2;;
23252;SDS011;11795;47.054;15.408;2024-01-16T06:50:08;7.8;;;4.5;;
23252;SDS011;11795;47.054;15.408;2024-01-16T06:52:08;7.8;;;4.5;;
23252;SDS011;11795;47.054;15.408;2024-01-16T06:54:08;6.9;;;4.6;;
23252;SDS011;11795;47.054;15.408;2024-01-16T06:56:08;6.9;;;4.6;;
23252;SDS011;11795;47.054;15.408;2024-01-16T06:58:08;6.9;;;4.6;;
23252;SDS011;11795;47.054;15.408;2024-01-16T07:02:08;5.5;;;3.7;;
23252;SDS011;11795;47.054;15.408;2024-01-16T07:04:08;5.6;;;3.8;;
23252;SDS011;11795;47.054;15.408;2024-01-16T07:06:08;5.6;;;3.8;;
23252;SDS011;11795;47.054;15.408;2024-01-16T07:08:08;5.6;;;3.8;;
23252;SDS011;11795;47.054;15.408;2024-01-16T07:10:08;5.0;;;3.4;;
23252;SDS011;11795;47.054;15.408;2024-01-16T07:12:08;5.0;;;3.4;;
23252;SDS011;11795;47.054;15.408;2024-01-16T07:14:08;5.3;;;2.9;;
23252;SDS011;11795;47.054;15.408;2024-01-16T07:16:09;5.3;;;2.9;;
23252;SDS011;11795;47.054;15.408;2024-01-16T07:18:08;5.3;;;2.9;;
23252;SDS011;11795;47.054;15.408;2024-01-16T07:20:08;4.7;;;3.5;;
23252;SDS011;11795;47.054;15.408;2024-01-16T07:22:08;4.7;;;3.5;;
23252;SDS011;11795;47.054;15.408;2024-01-16T07:24:08;6.6;;;3.1;;
23252;SDS011;11795;47.054;15.408;2024-01-16T07:26:08;6.6;;;3.1;;
23252;SDS011;11795;47.054;15.408;2024-01-16T07:28:08;6.6;;;3.1;;
23252;SDS011;11795;47.054;15.408;2024-01-16T07:30:08;8.4;;;3.7;;
23252;SDS011;11795;47.054;15.408;2024-01-16T07:32:08;8.4;;;3.7;;
23252;SDS011;11795;47.054;15.408;2024-01-16T07:34:08;6.1;;;4.1;;
23252;SDS011;11795;47.054;15.408;2024-01-16T07:36:08;6.1;;;4.1;;
23252;SDS011;11795;47.054;15.408;2024-01-16T07:38:08;6.1;;;4.1;;
23252;SDS011;11795;47.054;15.408;2024-01-16T07:40:10;6.4;;;4.1;;
23252;SDS011;11795;47.054;15.408;2024-01-16T07:42:08;6.4;;;4.1;;
23252;SDS011;11795;47.054;15.408;2024-01-16T07:44:08;6.6;;;4.5;;
23252;SDS011;11795;47.054;15.408;2024-01-16T07:46:08;6.6;;;4.5;;
23252;SDS011;11795;47.054;15.408;2024-01-16T07:48:08;6.6;;;4.5;;
23252;SDS011;11795;47.054;15.408;2024-01-16T07:50:09;9.6;;;6.0;;
23252;SDS011;11795;47.054;15.408;2024-01-16T07:52:08;9.6;;;6.0;;
23252;SDS011;11795;47.054;15.408;2024-01-16T07:54:09;9.1;;;5.8;;
23252;SDS011;11795;47.054;15.408;2024-01-16T07:56:08;9.1;;;5.8;;
23252;SDS011;11795;47.054;15.408;2024-01-16T07:58:09;9.1;;;5.8;;
23252;SDS011;11795;47.054;15.408;2024-01-16T08:00:10;10.5;;;6.0;;
23252;SDS011;11795;47.054;15.408;2024-01-16T08:02:09;10.5;;;6.0;;
23252;SDS011;11795;47.054;15.408;2024-01-16T08:04:08;11.6;;;5.8;;
23252;SDS011;11795;47.054;15.408;2024-01-16T08:06:08;11.6;;;5.8;;
23252;SDS011;11795;47.054;15.408;2024-01-16T08:08:08;11.6;;;5.8;;
23252;SDS011;11795;47.054;15.408;2024-01-16T08:10:08;8.6;;;5.5;;
23252;SDS011;11795;47.054;15.408;2024-01-16T08:28:09;5.8;;;3.9;;
23252;SDS011;11795;47.054;15.408;2024-01-16T08:30:09;6.9;;;4.0;;
23252;SDS011;11795;47.054;15.408;2024-01-16T08:32:08;6.9;;;4.0;;
23252;SDS011;11795;47.054;15.408;2024-01-16T08:34:08;7.0;;;4.0;;
23252;SDS011;11795;47.054;15.408;2024-01-16T08:36:08;7.0;;;4.0;;
23252;SDS011;11795;47.054;15.408;2024-01-16T08:38:08;7.0;;;4.0;;
23252;SDS011;11795;47.054;15.408;2024-01-16T08:40:08;9.0;;;3.9;;
23252;SDS011;11795;47.054;15.408;2024-01-16T08:42:08;9.0;;;3.9;;
23252;SDS011;11795;47.054;15.408;2024-01-16T08:44:08;8.7;;;4.0;;
23252;SDS011;11795;47.054;15.408;2024-01-16T08:46:08;8.7;;;4.0;;
23252;SDS011;11795;47.054;15.408;2024-01-16T08:48:08;8.7;;;4.0;;
23252;SDS011;11795;47.054;15.408;2024-01-16T08:50:08;9.1;;;4.1;;
23252;SDS011;11795;47.054;15.408;2024-01-16T08:52:09;9.1;;;4.1;;
23252;SDS011;11795;47.054;15.408;2024-01-16T08:54:08;11.5;;;4.1;;
23252;SDS011;11795;47.054;15.408;2024-01-16T08:58:08;11.5;;;4.1;;
23252;SDS011;11795;47.054;15.408;2024-01-16T09:00:08;11.8;;;3.9;;
23252;SDS011;11795;47.054;15.408;2024-01-16T09:02:08;11.8;;;3.9;;
23252;SDS011;11795;47.054;15.408;2024-01-16T09:04:08;8.4;;;3.9;;
23252;SDS011;11795;47.054;15.408;2024-01-16T09:06:08;8.4;;;3.9;;
23252;SDS011;11795;47.054;15.408;2024-01-16T09:08:08;8.4;;;3.9;;
23252;SDS011;11795;47.054;15.408;2024-01-16T09:10:08;6.4;;;3.9;;
23252;SDS011;11795;47.054;15.408;2024-01-16T09:12:08;6.4;;;3.9;;
23252;SDS011;11795;47.054;15.408;2024-01-16T09:14:08;10.1;;;5.6;;
23252;SDS011;11795;47.054;15.408;2024-01-16T09:16:08;10.1;;;5.6;;
23252;SDS011;11795;47.054;15.408;2024-01-16T09:18:08;10.1;;;5.6;;
23252;SDS011;11795;47.054;15.408;2024-01-16T09:20:08;9.7;;;4.8;;
23252;SDS011;11795;47.054;15.408;2024-01-16T09:22:08;9.7;;;4.8;;
23252;SDS011;11795;47.054;15.408;2024-01-16T09:24:08;9.9;;;4.3;;
23252;SDS011;11795;47.054;15.408;2024-01-16T09:26:08;9.9;;;4.3;;
23252;SDS011;11795;47.054;15.408;2024-01-16T09:28:08;9.9;;;4.3;;
23252;SDS011;11795;47.054;15.408;2024-01-16T09:30:08;9.8;;;4.5;;
23252;SDS011;11795;47.054;15.408;2024-01-16T09:32:08;9.8;;;4.5;;
23252;SDS011;11795;47.054;15.408;2024-01-16T09:34:08;6.5;;;4.0;;
23252;SDS011;11795;47.054;15.408;2024-01-16T09:36:08;6.5;;;4.0;;
23252;SDS011;11795;47.054;15.408;2024-01-16T09:38:09;6.5;;;4.0;;
23252;SDS011;11795;47.054;15.408;2024-01-16T09:40:09;4.8;;;2.9;;
23252;SDS011;11795;47.054;15.408;2024-01-16T09:42:08;4.8;;;2.9;;
23252;SDS011;11795;47.054;15.408;2024-01-16T09:44:08;4.8;;;3.0;;
23252;SDS011;11795;47.054;15.408;2024-01-16T09:46:08;4.8;;;3.0;;
23252;SDS011;11795;47.054;15.408;2024-01-16T09:48:08;4.8;;;3.0;;
23252;SDS011;11795;47.054;15.408;2024-01-16T09:50:08;10.2;;;6.3;;
23252;SDS011;11795;47.054;15.408;2024-01-16T09:52:08;10.2;;;6.3;;
23252;SDS011;11795;47.054;15.408;2024-01-16T09:54:12;14.1;;;6.8;;
23252;SDS011;11795;47.054;15.408;2024-01-16T09:56:09;14.1;;;6.8;;
23252;SDS011;11795;47.054;15.408;2024-01-16T09:58:08;14.1;;;6.8;;
23252;SDS011;11795;47.054;15.408;2024-01-16T10:00:10;14.7;;;7.2;;
23252;SDS011;11795;47.054;15.408;2024-01-16T10:02:11;14.7;;;7.2;;
23252;SDS011;11795;47.054;15.408;2024-01-16T10:04:08;12.5;;;5.7;;
23252;SDS011;11795;47.054;15.408;2024-01-16T10:06:08;12.5;;;5.7;;
23252;SDS011;11795;47.054;15.408;2024-01-16T10:08:08;12.5;;;5.7;;
23252;SDS011;11795;47.054;15.408;2024-01-16T10:10:08;10.4;;;5.1;;
23252;SDS011;11795;47.054;15.408;2024-01-16T10:12:08;10.4;;;5.1;;
23252;SDS011;11795;47.054;15.408;2024-01-16T10:14:08;12.8;;;7.1;;
23252;SDS011;11795;47.054;15.408;2024-01-16T10:16:08;12.8;;;7.1;;
23252;SDS011;11795;47.054;15.408;2024-01-16T10:20:09;10.3;;;5.0;;
23252;SDS011;11795;47.054;15.408;2024-01-16T10:22:08;10.3;;;5.0;;
23252;SDS011;11795;47.054;15.408;2024-01-16T10:24:11;10.7;;;5.6;;
23252;SDS011;11795;47.054;15.408;2024-01-16T10:26:08;10.7;;;5.6;;
23252;SDS011;11795;47.054;15.408;2024-01-16T10:28:09;10.7;;;5.6;;
23252;SDS011;11795;47.054;15.408;2024-01-16T10:30:08;8.9;;;4.3;;
23252;SDS011;11795;47.054;15.408;2024-01-16T10:32:08;8.9;;;4.3;;
23252;SDS011;11795;47.054;15.408;2024-01-16T10:36:09;9.1;;;5.3;;
23252;SDS011;11795;47.054;15.408;2024-01-16T10:38:08;9.1;;;5.3;;
23252;SDS011;11795;47.054;15.408;2024-01-16T10:40:08;6.2;;;3.6;;
23252;SDS011;11795;47.054;15.408;2024-01-16T10:42:08;6.2;;;3.6;;
23252;SDS011;11795;47.054;15.408;2024-01-16T10:44:08;2.8;;;1.8;;
23252;SDS011;11795;47.054;15.408;2024-01-16T10:46:09;2.8;;;1.8;;
23252;SDS011;11795;47.054;15.408;2024-01-16T10:48:08;2.8;;;1.8;;
23252;SDS011;11795;47.054;15.408;2024-01-16T10:50:09;3.7;;;2.0;;
23252;SDS011;11795;47.054;15.408;2024-01-16T10:52:09;3.7;;;2.0;;
23252;SDS011;11795;47.054;15.408;2024-01-16T10:54:11;2.9;;;1.7;;
23252;SDS011;11795;47.054;15.408;2024-01-16T10:56:09;2.9;;;1.7;;
23252;SDS011;11795;47.054;15.408;2024-01-16T10:58:08;2.9;;;1.7;;
23252;SDS011;11795;47.054;15.408;2024-01-16T11:00:10;2.6;;;1.4;;
23252;SDS011;11795;47.054;15.408;2024-01-16T11:02:08;2.6;;;1.4;;
23252;SDS011;11795;47.054;15.408;2024-01-16T11:04:08;2.2;;;1.7;;
23252;SDS011;11795;47.054;15.408;2024-01-16T11:06:08;2.2;;;1.7;;
23252;SDS011;11795;47.054;15.408;2024-01-16T11:08:08;2.2;;;1.7;;
23252;SDS011;11795;47.054;15.408;2024-01-16T11:10:08;3.1;;;1.7;;
23252;SDS011;11795;47.054;15.408;2024-01-16T11:12:08;3.1;;;1.7;;
23252;SDS011;11795;47.054;15.408;2024-01-16T11:14:08;3.2;;;2.0;;
23252;SDS011;11795;47.054;15.408;2024-01-16T11:16:08;3.2;;;2.0;;
23252;SDS011;11795;47.054;15.408;2024-01-16T11:18:09;3.2;;;2.0;;
23252;SDS011;11795;47.054;15.408;2024-01-16T11:20:10;2.8;;;2.0;;
23252;SDS011;11795;47.054;15.408;2024-01-16T11:22:09;2.8;;;2.0;;
23252;SDS011;11795;47.054;15.408;2024-01-16T11:24:08;5.1;;;2.3;;
23252;SDS011;11795;47.054;15.408;2024-01-16T11:28:08;5.1;;;2.3;;
23252;SDS011;11795;47.054;15.408;2024-01-16T11:30:09;4.6;;;2.3;;
23252;SDS011;11795;47.054;15.408;2024-01-16T11:32:09;4.6;;;2.3;;
23252;SDS011;11795;47.054;15.408;2024-01-16T11:34:09;8.5;;;4.3;;
23252;SDS011;11795;47.054;15.408;2024-01-16T11:38:09;8.5;;;4.3;;
23252;SDS011;11795;47.054;15.408;2024-01-16T11:42:09;4.5;;;2.9;;
23252;SDS011;11795;47.054;15.408;2024-01-16T11:44:10;5.2;;;2.7;;
23252;SDS011;11795;47.054;15.408;2024-01-16T11:46:08;5.2;;;2.7;;
23252;SDS011;11795;47.054;15.408;2024-01-16T11:48:08;5.2;;;2.7;;
23252;SDS011;11795;47.054;15.408;2024-01-16T11:50:08;3.2;;;2.1;;
23252;SDS011;11795;47.054;15.408;2024-01-16T11:52:08;3.2;;;2.1;;
23252;SDS011;11795;47.054;15.408;2024-01-16T11:54:08;4.6;;;2.3;;
23252;SDS011;11795;47.054;15.408;2024-01-16T11:56:15;4.6;;;2.3;;
23252;SDS011;11795;47.054;15.408;2024-01-16T11:58:14;4.6;;;2.3;;
23252;SDS011;11795;47.054;15.408;2024-01-16T12:00:18;5.1;;;2.3;;
23252;SDS011;11795;47.054;15.408;2024-01-16T12:02:10;5.1;;;2.3;;
23252;SDS011;11795;47.054;15.408;2024-01-16T12:04:08;4.3;;;2.7;;
23252;SDS011;11795;47.054;15.408;2024-01-16T12:06:10;4.3;;;2.7;;
23252;SDS011;11795;47.054;15.408;2024-01-16T12:08:10;4.3;;;2.7;;
23252;SDS011;11795;47.054;15.408;2024-01-16T12:10:10;5.0;;;2.4;;
23252;SDS011;11795;47.054;15.408;2024-01-16T12:12:08;5.0;;;2.4;;
23252;SDS011;11795;47.054;15.408;2024-01-16T12:14:08;5.5;;;2.1;;
23252;SDS011;11795;47.054;15.408;2024-01-16T12:16:08;5.5;;;2.1;;
23252;SDS011;11795;47.054;15.408;2024-01-16T12:18:08;5.5;;;2.1;;
23252;SDS011;11795;47.054;15.408;2024-01-16T12:22:08;4.3;;;2.2;;
23252;SDS011;11795;47.054;15.408;2024-01-16T12:24:08;3.7;;;2.2;;
23252;SDS011;11795;47.054;15.408;2024-01-16T12:26:08;3.7;;;2.2;;
23252;SDS011;11795;47.054;15.408;2024-01-16T12:28:08;3.7;;;2.2;;
23252;SDS011;11795;47.054;15.408;2024-01-16T12:30:08;3.8;;;2.1;;
23252;SDS011;11795;47.054;15.408;2024-01-16T12:32:08;3.8;;;2.1;;
23252;SDS011;11795;47.054;15.408;2024-01-16T12:34:08;4.7;;;2.3;;
23252;SDS011;11795;47.054;15.408;2024-01-16T12:36:08;4.7;;;2.3;;
23252;SDS011;11795;47.054;15.408;2024-01-16T12:38:10;4.7;;;2.3;;
23252;SDS011;11795;47.054;15.408;2024-01-16T12:40:10;3.1;;;1.6;;
23252;SDS011;11795;47.054;15.408;2024-01-16T12:42:08;3.1;;;1.6;;
23252;SDS011;11795;47.054;15.408;2024-01-16T12:44:08;2.7;;;1.7;;
23252;SDS011;11795;47.054;15.408;2024-01-16T12:46:10;2.7;;;1.7;;
23252;SDS011;11795;47.054;15.408;2024-01-16T12:48:08;2.7;;;1.7;;
23252;SDS011;11795;47.054;15.408;2024-01-16T12:50:08;2.9;;;1.9;;